KDXX

Details ICAO KDXX
Name LAC QUI PARLE CO
Region United States
Timezone America/Chicago (UTC-5.0)
Plans Departing 3
Arriving 1
Stats Elevation 1,082 ft / 330 m (AMSL)
Location 44.986222° -96.177693°
Runways 2
Magnetic Variation 2.516° E
Sunrise 2018-05-22 10:49:59 UTC / 2018-05-22 05:49:59 Local
Sunset 2018-05-23 01:55:40 UTC / 2018-05-22 20:55:40 Local
Advertisement - Login to hide

Runways

ID Width Length Bearing (true) Bearing (mag) Surface Threshold Offset Overrun Length
08 135 ft / 41 m 3,011 ft / 918 m 90.00° 87.48° Grass 0 ft / 0 m 0 ft / 0 m
13 75 ft / 23 m 3,300 ft / 1,006 m 140.11° 137.59° Asphalt 0 ft / 0 m 0 ft / 0 m
26 135 ft / 41 m 3,011 ft / 918 m 270.00° 267.48° Grass 0 ft / 0 m 0 ft / 0 m
31 75 ft / 23 m 3,300 ft / 1,006 m 320.11° 317.59° Asphalt 0 ft / 0 m 0 ft / 0 m

Map

Weather


0- 5 10 15 20 25 30 35+ Temperature / ° C

Clouds and Precipitation
Forecast for 2018-05-22 12:00 UTC. Updated an hour ago

Ground ~20,000 ft ~40,000 ft Winds

METAR

KDXX 220955Z AUTO 16004KT 1/4SM FG OVC002 14/14 A2999 RMK AO2

TAF

Not found

Frequencies

Unicom 122.80 MHz CTAF/UNICOM
Warning: Do not use this data for real-world aviation or navigation. No guarantee of current accuracy is given.